sensor_id;sensor_type;location;lat;lon;timestamp;pressure;altitude;pressure_sealevel;temperature;humidity
58245;BME280;44550;43.864;25.986;2023-03-30T00:03:37;101928.84;;;2.87;47.05
58245;BME280;44550;43.864;25.986;2023-03-30T00:07:39;101917.75;;;2.73;47.53
58245;BME280;44550;43.864;25.986;2023-03-30T00:11:41;101925.41;;;2.72;46.96
58245;BME280;44550;43.864;25.986;2023-03-30T00:15:43;101921.25;;;2.59;47.63
58245;BME280;44550;43.864;25.986;2023-03-30T00:19:43;101922.03;;;2.43;47.67
58245;BME280;44550;43.864;25.986;2023-03-30T00:23:42;101925.19;;;2.24;48.34
58245;BME280;44550;43.864;25.986;2023-03-30T00:27:44;101923.00;;;2.16;49.15
58245;BME280;44550;43.864;25.986;2023-03-30T00:31:47;101925.63;;;2.02;48.75
58245;BME280;44550;43.864;25.986;2023-03-30T00:35:50;101928.41;;;2.20;49.23
58245;BME280;44550;43.864;25.986;2023-03-30T00:39:50;101923.50;;;2.25;48.67
58245;BME280;44550;43.864;25.986;2023-03-30T00:43:54;101922.09;;;2.30;48.78
58245;BME280;44550;43.864;25.986;2023-03-30T00:48:00;101925.41;;;2.42;48.40
58245;BME280;44550;43.864;25.986;2023-03-30T00:52:09;101916.53;;;2.52;48.47
58245;BME280;44550;43.864;25.986;2023-03-30T00:56:15;101919.91;;;2.36;48.46
58245;BME280;44550;43.864;25.986;2023-03-30T01:00:24;101919.41;;;2.14;50.02
58245;BME280;44550;43.864;25.986;2023-03-30T01:04:27;101910.13;;;1.59;52.41
58245;BME280;44550;43.864;25.986;2023-03-30T01:08:35;101911.13;;;1.48;53.95
58245;BME280;44550;43.864;25.986;2023-03-30T01:12:44;101917.38;;;1.38;54.08
58245;BME280;44550;43.864;25.986;2023-03-30T01:16:46;101917.97;;;1.48;54.67
58245;BME280;44550;43.864;25.986;2023-03-30T01:30:06;101925.66;;;1.33;57.69
58245;BME280;44550;43.864;25.986;2023-03-30T01:34:28;101915.41;;;1.34;58.43
58245;BME280;44550;43.864;25.986;2023-03-30T01:42:55;101924.88;;;1.07;58.67
58245;BME280;44550;43.864;25.986;2023-03-30T01:46:58;101919.91;;;1.10;59.69
58245;BME280;44550;43.864;25.986;2023-03-30T01:51:04;101927.22;;;1.31;60.09
58245;BME280;44550;43.864;25.986;2023-03-30T01:55:10;101924.41;;;1.82;58.34
58245;BME280;44550;43.864;25.986;2023-03-30T01:59:17;101922.97;;;1.73;58.88
58245;BME280;44550;43.864;25.986;2023-03-30T02:03:20;101928.94;;;1.58;59.20
58245;BME280;44550;43.864;25.986;2023-03-30T02:07:23;101926.84;;;1.66;59.20
58245;BME280;44550;43.864;25.986;2023-03-30T02:11:38;101931.59;;;1.73;58.69
58245;BME280;44550;43.864;25.986;2023-03-30T02:15:46;101940.78;;;1.83;55.77
58245;BME280;44550;43.864;25.986;2023-03-30T02:19:50;101942.28;;;1.79;53.72
58245;BME280;44550;43.864;25.986;2023-03-30T02:23:53;101942.59;;;1.29;54.75
58245;BME280;44550;43.864;25.986;2023-03-30T02:28:00;101947.44;;;1.25;55.70
58245;BME280;44550;43.864;25.986;2023-03-30T02:32:03;101948.06;;;1.07;57.71
58245;BME280;44550;43.864;25.986;2023-03-30T02:36:15;101957.66;;;1.10;58.21
58245;BME280;44550;43.864;25.986;2023-03-30T02:40:32;101964.09;;;1.30;57.38
58245;BME280;44550;43.864;25.986;2023-03-30T02:44:37;101961.91;;;1.36;57.09
58245;BME280;44550;43.864;25.986;2023-03-30T02:48:44;101967.16;;;1.11;57.79
58245;BME280;44550;43.864;25.986;2023-03-30T02:52:49;101978.75;;;1.04;57.99
58245;BME280;44550;43.864;25.986;2023-03-30T02:56:54;101966.69;;;1.16;57.63
58245;BME280;44550;43.864;25.986;2023-03-30T03:00:55;101970.63;;;1.11;57.51
58245;BME280;44550;43.864;25.986;2023-03-30T03:05:00;101971.50;;;1.25;57.23
58245;BME280;44550;43.864;25.986;2023-03-30T03:09:03;101974.59;;;1.33;57.14
58245;BME280;44550;43.864;25.986;2023-03-30T03:13:03;101971.22;;;1.07;58.02
58245;BME280;44550;43.864;25.986;2023-03-30T03:17:04;101981.31;;;0.91;57.67
58245;BME280;44550;43.864;25.986;2023-03-30T03:21:08;101982.91;;;0.89;57.67
58245;BME280;44550;43.864;25.986;2023-03-30T03:25:08;101991.72;;;0.92;57.40
58245;BME280;44550;43.864;25.986;2023-03-30T03:29:09;101989.47;;;1.10;57.20
58245;BME280;44550;43.864;25.986;2023-03-30T03:33:09;101990.16;;;1.21;56.20
58245;BME280;44550;43.864;25.986;2023-03-30T03:37:12;101990.63;;;0.89;57.66
58245;BME280;44550;43.864;25.986;2023-03-30T03:41:12;101999.25;;;0.51;58.64
58245;BME280;44550;43.864;25.986;2023-03-30T03:45:12;101996.19;;;-0.18;60.69
58245;BME280;44550;43.864;25.986;2023-03-30T03:49:14;102001.03;;;-0.23;60.57
58245;BME280;44550;43.864;25.986;2023-03-30T03:53:16;102004.25;;;0.11;59.58
58245;BME280;44550;43.864;25.986;2023-03-30T03:57:16;101998.88;;;0.58;58.84
58245;BME280;44550;43.864;25.986;2023-03-30T04:05:38;102004.91;;;1.24;55.54
58245;BME280;44550;43.864;25.986;2023-03-30T04:09:41;102024.63;;;0.97;56.48
58245;BME280;44550;43.864;25.986;2023-03-30T04:13:41;102036.25;;;0.40;57.87
58245;BME280;44550;43.864;25.986;2023-03-30T04:17:43;102031.09;;;0.03;58.28
58245;BME280;44550;43.864;25.986;2023-03-30T04:21:46;102046.63;;;-0.44;59.59
58245;BME280;44550;43.864;25.986;2023-03-30T04:25:52;102053.00;;;-0.74;60.26
58245;BME280;44550;43.864;25.986;2023-03-30T04:29:55;102057.13;;;-0.88;61.32
58245;BME280;44550;43.864;25.986;2023-03-30T04:34:01;102059.72;;;-0.64;61.10
58245;BME280;44550;43.864;25.986;2023-03-30T04:38:01;102056.44;;;-0.15;60.00
58245;BME280;44550;43.864;25.986;2023-03-30T04:42:03;102064.00;;;0.32;59.16
58245;BME280;44550;43.864;25.986;2023-03-30T04:46:03;102067.38;;;0.81;56.65
58245;BME280;44550;43.864;25.986;2023-03-30T04:50:02;102074.75;;;1.15;57.04
58245;BME280;44550;43.864;25.986;2023-03-30T04:54:09;102075.31;;;2.17;53.76
58245;BME280;44550;43.864;25.986;2023-03-30T04:58:11;102074.53;;;2.05;52.02
58245;BME280;44550;43.864;25.986;2023-03-30T05:02:14;102082.03;;;1.60;53.08
58245;BME280;44550;43.864;25.986;2023-03-30T05:06:14;102089.56;;;1.57;53.65
58245;BME280;44550;43.864;25.986;2023-03-30T05:10:15;102090.47;;;1.58;54.25
58245;BME280;44550;43.864;25.986;2023-03-30T05:14:18;102084.50;;;1.99;52.91
58245;BME280;44550;43.864;25.986;2023-03-30T05:18:19;102088.13;;;2.87;51.05
58245;BME280;44550;43.864;25.986;2023-03-30T05:22:22;102075.63;;;3.99;47.35
58245;BME280;44550;43.864;25.986;2023-03-30T05:26:28;102072.59;;;4.23;54.85
58245;BME280;44550;43.864;25.986;2023-03-30T05:30:59;102065.41;;;3.40;60.09
58245;BME280;44550;43.864;25.986;2023-03-30T05:35:48;102077.09;;;2.89;63.66
58245;BME280;44550;43.864;25.986;2023-03-30T05:40:24;102076.41;;;2.92;61.54
58245;BME280;44550;43.864;25.986;2023-03-30T05:44:49;102073.97;;;3.24;54.86
58245;BME280;44550;43.864;25.986;2023-03-30T05:49:02;102072.66;;;3.16;48.17
58245;BME280;44550;43.864;25.986;2023-03-30T05:53:06;102080.16;;;3.12;47.10
58245;BME280;44550;43.864;25.986;2023-03-30T05:57:17;102089.50;;;3.10;46.68
58245;BME280;44550;43.864;25.986;2023-03-30T06:01:28;102089.34;;;3.21;46.90
58245;BME280;44550;43.864;25.986;2023-03-30T06:05:35;102087.34;;;3.17;46.75
58245;BME280;44550;43.864;25.986;2023-03-30T06:09:49;102091.19;;;3.24;47.08
58245;BME280;44550;43.864;25.986;2023-03-30T06:13:51;102089.50;;;3.39;46.96
58245;BME280;44550;43.864;25.986;2023-03-30T06:18:13;102097.78;;;3.48;47.66
58245;BME280;44550;43.864;25.986;2023-03-30T06:22:20;102100.44;;;3.50;48.32
58245;BME280;44550;43.864;25.986;2023-03-30T06:26:28;102096.94;;;3.79;47.71
58245;BME280;44550;43.864;25.986;2023-03-30T06:30:43;102113.16;;;3.91;48.40
58245;BME280;44550;43.864;25.986;2023-03-30T06:34:47;102104.56;;;4.40;48.69
58245;BME280;44550;43.864;25.986;2023-03-30T06:39:14;102106.28;;;4.56;48.20
58245;BME280;44550;43.864;25.986;2023-03-30T06:43:15;102117.28;;;4.84;48.67
58245;BME280;44550;43.864;25.986;2023-03-30T06:47:20;102119.00;;;4.51;48.87
58245;BME280;44550;43.864;25.986;2023-03-30T06:51:27;102130.66;;;4.59;50.18
58245;BME280;44550;43.864;25.986;2023-03-30T06:55:32;102128.63;;;4.70;50.24
58245;BME280;44550;43.864;25.986;2023-03-30T06:59:36;102122.97;;;4.93;50.72
58245;BME280;44550;43.864;25.986;2023-03-30T07:03:46;102119.59;;;5.82;48.25
58245;BME280;44550;43.864;25.986;2023-03-30T07:08:11;102119.66;;;5.66;48.03
58245;BME280;44550;43.864;25.986;2023-03-30T07:12:23;102111.63;;;5.96;47.22
58245;BME280;44550;43.864;25.986;2023-03-30T07:16:51;102118.91;;;6.40;46.13
58245;BME280;44550;43.864;25.986;2023-03-30T07:21:41;102120.47;;;6.75;46.27
58245;BME280;44550;43.864;25.986;2023-03-30T07:30:43;102115.00;;;6.89;45.34
58245;BME280;44550;43.864;25.986;2023-03-30T07:40:35;102107.19;;;6.89;46.53
58245;BME280;44550;43.864;25.986;2023-03-30T07:44:46;102095.03;;;7.92;43.56
58245;BME280;44550;43.864;25.986;2023-03-30T07:48:48;102087.50;;;8.00;42.84
58245;BME280;44550;43.864;25.986;2023-03-30T09:31:46;101997.50;;;10.82;25.95
58245;BME280;44550;43.864;25.986;2023-03-30T09:36:16;101982.69;;;10.82;25.79
58245;BME280;44550;43.864;25.986;2023-03-30T09:45:39;101978.84;;;10.35;25.60
58245;BME280;44550;43.864;25.986;2023-03-30T09:49:51;101967.66;;;10.41;24.38
58245;BME280;44550;43.864;25.986;2023-03-30T09:58:44;101958.56;;;10.93;24.06
58245;BME280;44550;43.864;25.986;2023-03-30T10:03:02;101956.00;;;10.96;24.04
58245;BME280;44550;43.864;25.986;2023-03-30T10:07:24;101940.00;;;11.58;23.67
58245;BME280;44550;43.864;25.986;2023-03-30T10:11:46;101940.16;;;11.26;23.59
58245;BME280;44550;43.864;25.986;2023-03-30T10:16:05;101927.38;;;11.81;23.23
58245;BME280;44550;43.864;25.986;2023-03-30T10:20:28;101930.44;;;11.99;23.08
58245;BME280;44550;43.864;25.986;2023-03-30T10:25:03;101924.94;;;11.88;23.42
58245;BME280;44550;43.864;25.986;2023-03-30T10:29:46;101922.59;;;11.22;24.14
58245;BME280;44550;43.864;25.986;2023-03-30T10:33:51;101909.38;;;11.96;23.49
58245;BME280;44550;43.864;25.986;2023-03-30T10:37:55;101902.28;;;11.92;23.71
58245;BME280;44550;43.864;25.986;2023-03-30T10:42:00;101906.47;;;11.82;23.94
58245;BME280;44550;43.864;25.986;2023-03-30T10:50:37;101897.28;;;11.21;23.97
58245;BME280;44550;43.864;25.986;2023-03-30T10:55:03;101883.88;;;11.46;23.92
58245;BME280;44550;43.864;25.986;2023-03-30T10:59:27;101868.53;;;12.07;23.08
58245;BME280;44550;43.864;25.986;2023-03-30T11:03:50;101863.13;;;12.48;23.75
58245;BME280;44550;43.864;25.986;2023-03-30T11:08:28;101849.50;;;12.69;23.76
58245;BME280;44550;43.864;25.986;2023-03-30T11:12:38;101829.06;;;12.51;23.74
58245;BME280;44550;43.864;25.986;2023-03-30T11:16:46;101832.44;;;12.42;24.04
58245;BME280;44550;43.864;25.986;2023-03-30T11:20:58;101814.97;;;11.93;24.26
58245;BME280;44550;43.864;25.986;2023-03-30T11:25:08;101811.47;;;12.42;24.06
58245;BME280;44550;43.864;25.986;2023-03-30T11:29:23;101796.66;;;13.05;23.58
58245;BME280;44550;43.864;25.986;2023-03-30T11:33:34;101805.19;;;13.57;23.21
58245;BME280;44550;43.864;25.986;2023-03-30T11:38:14;101793.38;;;13.22;22.39
58245;BME280;44550;43.864;25.986;2023-03-30T11:47:41;101783.50;;;13.75;21.25
58245;BME280;44550;43.864;25.986;2023-03-30T12:01:37;101762.81;;;14.14;22.27
58245;BME280;44550;43.864;25.986;2023-03-30T12:05:49;101748.41;;;13.70;21.58
58245;BME280;44550;43.864;25.986;2023-03-30T12:09:57;101743.59;;;13.31;21.49
58245;BME280;44550;43.864;25.986;2023-03-30T12:14:18;101741.25;;;13.55;21.41
58245;BME280;44550;43.864;25.986;2023-03-30T12:24:14;101726.69;;;13.90;21.96
58245;BME280;44550;43.864;25.986;2023-03-30T12:28:54;101717.69;;;13.66;21.56
58245;BME280;44550;43.864;25.986;2023-03-30T12:33:12;101714.31;;;13.78;21.60
58245;BME280;44550;43.864;25.986;2023-03-30T12:38:02;101712.75;;;13.98;21.31
58245;BME280;44550;43.864;25.986;2023-03-30T12:42:39;101703.31;;;14.29;21.15
58245;BME280;44550;43.864;25.986;2023-03-30T12:47:11;101701.41;;;14.07;21.31
58245;BME280;44550;43.864;25.986;2023-03-30T12:51:32;101692.91;;;14.46;21.31
58245;BME280;44550;43.864;25.986;2023-03-30T13:16:18;101642.34;;;15.19;19.60
58245;BME280;44550;43.864;25.986;2023-03-30T15:16:17;101542.00;;;14.30;18.14
58245;BME280;44550;43.864;25.986;2023-03-30T15:21:36;101539.16;;;13.97;18.06
58245;BME280;44550;43.864;25.986;2023-03-30T15:26:33;101528.81;;;14.29;18.56
58245;BME280;44550;43.864;25.986;2023-03-30T15:37:18;101527.28;;;15.06;18.21
58245;BME280;44550;43.864;25.986;2023-03-30T15:46:58;101511.47;;;14.92;18.21
58245;BME280;44550;43.864;25.986;2023-03-30T15:52:07;101502.72;;;15.07;18.36
58245;BME280;44550;43.864;25.986;2023-03-30T16:25:12;101475.47;;;15.33;19.08
58245;BME280;44550;43.864;25.986;2023-03-30T16:36:24;101471.97;;;15.35;19.91
58245;BME280;44550;43.864;25.986;2023-03-30T16:52:15;101468.47;;;15.07;21.42
58245;BME280;44550;43.864;25.986;2023-03-30T18:52:27;101432.06;;;8.99;35.48
58245;BME280;44550;43.864;25.986;2023-03-30T18:56:27;101435.25;;;9.22;34.00
58245;BME280;44550;43.864;25.986;2023-03-30T19:00:29;101438.19;;;9.37;34.03
58245;BME280;44550;43.864;25.986;2023-03-30T19:04:29;101429.16;;;9.23;33.97
58245;BME280;44550;43.864;25.986;2023-03-30T19:08:32;101430.81;;;8.83;34.40
58245;BME280;44550;43.864;25.986;2023-03-30T19:12:32;101430.91;;;8.86;34.95
58245;BME280;44550;43.864;25.986;2023-03-30T19:16:33;101429.97;;;8.84;34.95
58245;BME280;44550;43.864;25.986;2023-03-30T19:20:34;101424.63;;;8.79;35.68
58245;BME280;44550;43.864;25.986;2023-03-30T19:24:42;101424.75;;;8.84;35.74
58245;BME280;44550;43.864;25.986;2023-03-30T19:28:44;101417.06;;;8.90;35.79
58245;BME280;44550;43.864;25.986;2023-03-30T19:32:44;101412.56;;;8.83;35.78
58245;BME280;44550;43.864;25.986;2023-03-30T19:36:45;101412.53;;;8.81;36.24
58245;BME280;44550;43.864;25.986;2023-03-30T19:40:51;101389.94;;;8.82;36.26
58245;BME280;44550;43.864;25.986;2023-03-30T19:44:50;101385.97;;;8.98;35.87
58245;BME280;44550;43.864;25.986;2023-03-30T19:48:49;101372.53;;;9.18;35.42
58245;BME280;44550;43.864;25.986;2023-03-30T19:52:49;101374.50;;;9.70;33.95
58245;BME280;44550;43.864;25.986;2023-03-30T19:56:54;101356.28;;;9.71;32.71
58245;BME280;44550;43.864;25.986;2023-03-30T20:00:55;101354.34;;;9.62;33.78
58245;BME280;44550;43.864;25.986;2023-03-30T20:04:56;101349.84;;;9.54;33.50
58245;BME280;44550;43.864;25.986;2023-03-30T20:08:56;101343.63;;;9.50;32.41
58245;BME280;44550;43.864;25.986;2023-03-30T20:17:16;101336.34;;;9.76;31.10
58245;BME280;44550;43.864;25.986;2023-03-30T20:21:17;101331.78;;;10.11;30.48
58245;BME280;44550;43.864;25.986;2023-03-30T20:25:20;101332.00;;;10.24;28.55
58245;BME280;44550;43.864;25.986;2023-03-30T20:29:19;101329.84;;;10.01;28.22
58245;BME280;44550;43.864;25.986;2023-03-30T20:33:21;101326.31;;;9.98;28.71
58245;BME280;44550;43.864;25.986;2023-03-30T20:37:28;101324.41;;;9.89;29.63
58245;BME280;44550;43.864;25.986;2023-03-30T20:41:30;101313.31;;;10.01;31.13
58245;BME280;44550;43.864;25.986;2023-03-30T20:45:34;101304.53;;;9.53;30.20
58245;BME280;44550;43.864;25.986;2023-03-30T20:49:44;101306.22;;;9.09;31.03
58245;BME280;44550;43.864;25.986;2023-03-30T20:53:45;101296.31;;;8.92;30.88
58245;BME280;44550;43.864;25.986;2023-03-30T20:57:45;101302.59;;;9.02;30.98
58245;BME280;44550;43.864;25.986;2023-03-30T21:01:45;101305.22;;;9.04;31.01
58245;BME280;44550;43.864;25.986;2023-03-30T21:05:56;101293.97;;;9.05;30.90
58245;BME280;44550;43.864;25.986;2023-03-30T21:10:00;101296.53;;;9.03;30.63
58245;BME280;44550;43.864;25.986;2023-03-30T21:14:02;101292.69;;;9.27;30.99
58245;BME280;44550;43.864;25.986;2023-03-30T21:18:02;101285.25;;;9.47;30.46
58245;BME280;44550;43.864;25.986;2023-03-30T21:22:06;101286.38;;;9.58;30.25
58245;BME280;44550;43.864;25.986;2023-03-30T21:26:13;101278.34;;;9.49;30.27
58245;BME280;44550;43.864;25.986;2023-03-30T21:30:17;101278.34;;;9.49;29.92
58245;BME280;44550;43.864;25.986;2023-03-30T21:34:23;101279.72;;;9.74;30.27
58245;BME280;44550;43.864;25.986;2023-03-30T21:38:24;101266.47;;;10.13;29.79
58245;BME280;44550;43.864;25.986;2023-03-30T21:42:26;101256.91;;;9.63;29.51
58245;BME280;44550;43.864;25.986;2023-03-30T21:46:26;101243.88;;;9.21;30.30
58245;BME280;44550;43.864;25.986;2023-03-30T21:50:27;101248.03;;;9.13;30.47
58245;BME280;44550;43.864;25.986;2023-03-30T21:54:29;101247.91;;;9.49;30.73
58245;BME280;44550;43.864;25.986;2023-03-30T21:58:30;101236.97;;;9.69;31.24
58245;BME280;44550;43.864;25.986;2023-03-30T22:02:29;101225.75;;;9.74;29.41
58245;BME280;44550;43.864;25.986;2023-03-30T22:06:29;101221.94;;;9.11;29.31
58245;BME280;44550;43.864;25.986;2023-03-30T22:10:31;101221.03;;;9.09;29.46
58245;BME280;44550;43.864;25.986;2023-03-30T22:14:30;101228.25;;;9.23;29.52
58245;BME280;44550;43.864;25.986;2023-03-30T22:18:30;101228.88;;;9.56;29.34
58245;BME280;44550;43.864;25.986;2023-03-30T22:22:30;101229.44;;;9.85;30.88
58245;BME280;44550;43.864;25.986;2023-03-30T22:26:31;101219.47;;;10.15;32.26
58245;BME280;44550;43.864;25.986;2023-03-30T22:30:31;101214.50;;;10.28;33.08
58245;BME280;44550;43.864;25.986;2023-03-30T22:34:30;101208.50;;;10.35;37.42
58245;BME280;44550;43.864;25.986;2023-03-30T22:38:30;101204.28;;;10.45;38.01
58245;BME280;44550;43.864;25.986;2023-03-30T22:42:31;101204.28;;;10.45;38.99
58245;BME280;44550;43.864;25.986;2023-03-30T22:46:34;101199.84;;;10.40;39.45
58245;BME280;44550;43.864;25.986;2023-03-30T22:50:34;101197.22;;;10.40;39.05
58245;BME280;44550;43.864;25.986;2023-03-30T22:54:33;101184.59;;;10.70;37.33
58245;BME280;44550;43.864;25.986;2023-03-30T22:58:34;101175.56;;;10.48;36.70
58245;BME280;44550;43.864;25.986;2023-03-30T23:02:34;101158.78;;;10.31;36.91
58245;BME280;44550;43.864;25.986;2023-03-30T23:06:34;101161.88;;;10.07;37.58
58245;BME280;44550;43.864;25.986;2023-03-30T23:10:34;101162.94;;;9.67;38.16
58245;BME280;44550;43.864;25.986;2023-03-30T23:14:35;101153.38;;;9.18;38.92
58245;BME280;44550;43.864;25.986;2023-03-30T23:18:34;101144.25;;;8.97;40.08
58245;BME280;44550;43.864;25.986;2023-03-30T23:22:34;101137.22;;;8.92;39.79
58245;BME280;44550;43.864;25.986;2023-03-30T23:26:33;101118.88;;;8.88;37.07
58245;BME280;44550;43.864;25.986;2023-03-30T23:30:35;101110.09;;;8.42;34.08
58245;BME280;44550;43.864;25.986;2023-03-30T23:34:34;101098.75;;;8.40;32.55
58245;BME280;44550;43.864;25.986;2023-03-30T23:38:34;101101.03;;;8.24;32.01
58245;BME280;44550;43.864;25.986;2023-03-30T23:42:34;101097.56;;;8.27;31.70
58245;BME280;44550;43.864;25.986;2023-03-30T23:46:36;101093.69;;;8.47;31.45
58245;BME280;44550;43.864;25.986;2023-03-30T23:50:35;101092.34;;;8.66;31.27
58245;BME280;44550;43.864;25.986;2023-03-30T23:54:35;101083.69;;;9.11;31.48
58245;BME280;44550;43.864;25.986;2023-03-30T23:58:39;101079.25;;;9.57;31.53
